Main page
METAR-TAF:

METAR-TAF

Airports :

Lydd Airport

Lydd, England

latitude: 50-57N, longitude: 000-56E, elevation: 3 m

Current weather observation

The report was made 23 minutes ago, at 09:50 UTC
Wind 6 kt from the East/Southeast
Temperature 17°C
Humidity 82%
Pressure 1008 hPa
Visibility 10 km or more

METAR: EGMD 030950Z AUTO 11006KT 9999 NCD 17/14 Q1008

Time: 11:13 (10:13 UTC)

Forecast

The report was made 2 hours and 12 minutes ago, at 08:01 UTC
Forecast valid from 03 at 09 UTC to 03 at 18 UTC
Wind 5 kt from variable directions
Visibility 10 km or more
no clouds below 1500 m and no cumulonimbus
Becoming
from 03 at 09 UTC to 03 at 12 UTC
Wind 10 kt from the East
Probability 30% :
Temporary
from 03 at 12 UTC to 03 at 18 UTC
Visibility: 8000 m
Few clouds at a height of 2000 ft
light rain

TAF: EGMD 030801Z 0309/0318 VRB05KT CAVOK BECMG 0309/0312 09010KT PROB30 TEMPO 0312/0318 8000 -RA FEW020

Weather observations and forecasts of more than 4000 airports (METAR and TAF reports).

The available stations are represented by yellow and red dots on the map.

Hover mouse over dot to see the name of the station.

Then click to see weather observations and forecasts.

To change the map : click on the green buttons with a black cross to zoom in, on the green button with a dash to zoom out, or on the green arrows for adjacent maps.


METAR-TAF: